Spencerport, NY (14559)

3:39 AM EDT on August 30, 2014 (GMT -0400)
Spencerport NY | Change Station
CLOSE
Current Station
Personal Weather Station
Location: Spencerport, NY
Elevation: 574 ft
Nearby Weather Stations

Elev 574 ft 43.18 °N, 77.80 °W | Updated 8 minutes ago

Clear
Clear
60.6 °F
Feels Like 60.6 °F
N
2.0
Wind Variable Wind from SSW
Gusts 3.0 mph

Today
High -- | Low -- °F
--% Chance of Precip.
Yesterday
High -- | Low -- °F
Precip. -- in
6:33 AM 7:49 PM
Waxing Crescent, 20% visible
Pressure 30.13 in
Visibility 10.0 miles
Clouds Few 20000 ft
Dew Point 56 °F
Humidity 85%
Rainfall 0.00 in
Snow Depth Not available.
UV 0 out of 12
Pollen 8.90 out of 12
Air Quality Not available.
Flu Activity Not available.
METAR KROC 300654Z 00000KT 10SM FEW200 16/13 A3012 RMK AO2 SLP201 T01610128

More Conditions Fewer Conditions

Pressure 30.13 in
Visibility 10.0 miles
Clouds Few 20000 ft
Dew Point 56 °F
Humidity 85%
Rainfall 0.00 in
Snow Depth Not available.
UV 0 out of 12
Pollen 8.90 out of 12
Air Quality Not available.
Flu Activity Not available.
METAR KROC 300654Z 00000KT 10SM FEW200 16/13 A3012 RMK AO2 SLP201 T01610128

More Conditions Fewer Conditions

10-Day Weather Forecast

Almanac

Astronomy

Aug. 30, 2014 Rise Set
Actual Time 6:33 AM EDT 7:49 PM EDT
Civil Twilight 6:03 AM EDT 8:19 PM EDT
Nautical Twilight 5:28 AM EDT 8:54 PM EDT
Astronomical Twilight 4:50 AM EDT 9:31 PM EDT
Moon 11:27 AM EDT 10:13 PM EDT
Length of Visible Light 14h 15m
Length of Day
13h 16m
Tomorrow will be 2m 50s shorter.
Waxing Crescent, 20% of the Moon is Illuminated
Today
Waxing Crescent
Sep 2
First Quarter
Sep 8
Full
Sep 15
Last Quarter
Sep 24
New

Today's Extremes

State Highs State Lows

Community

WunderPhotos

Upload Photos

1,748,463 photos uploaded!

Nearby

Air Quality

  Air Quality AQ Index Pollutant
Saturday Good
PM2.5
Saturday Good
OZONE
Sunday Good
PM2.5
Sunday Good
OZONE
Monday Moderate
OZONE
Monday Moderate
PM2.5
Tuesday Good
PM2.5
Tuesday Good
OZONE

Snow Depth

Station Depth Elevation
No new snow has been reported.

Earthquake Activity

City Distance Mag. Time & Date
No recent earthquake activity has been reported nearby.
Minimum magnitude displayed is 2.5.

Coastal Water Temperatures

Place Temperature
Buffalo, NY 73.0 °F
Alexandria Bay, NY 70.0 °F

Nearby Weather Stations